Chain of Ponds Twp, Maine
Current Conditions -  °F | °C
As of 5:52 AM on Tuesday 21 Oct 2014 (Local Time) from KBML Reporting Station
Light Rain Light Rain  
Wind Chill: 37°   Ceiling: 4800
Heat Index: 37°   Visibility: 8mi
Dew Point: 35°   Wind: 0mph
Humidity: 93%   Direction: NA
Pressure: 30"   Gusts: NA
Location:  45.2635°N, 70.5567°W
Report Text: KBML 210952Z AUTO 00000KT 8SM -RA OVC048 03/02 A3000 RMK AO2 RAB13 SLP168 P0000 T00280017
Loading
Personal Weather Stations






























Interactive Weather Map
Tropical Storm Tracking
New forecast layout! Learn more

10-Day Weather Forecast

Advertisements
Track Severe Weather on mobile